SVA214 OEDF-OMDB
Flight info
| Callsign | SVA214 |
|---|---|
| Flight time | 0h 57m |
| Altitude | 26000 |
| Route | ROTEL N572 DAVRI P559 VUTEB |
| Aircraft | A320/M-SDE3FGHIRWY/LB1 |
Departure
| Time | 2026-04-21 20:22 |
|---|---|
| Airport | King Fahd International Airport (OEDF) |
Arrival
| Time | 2026-04-21 21:20 |
|---|---|
| Airport | Dubai International Airport (OMDB) |
| Time | Latitude | Longitude | Altitude | Speed | Heading |
|---|---|---|---|---|---|
| 2026-04-21 19:49 | 26.46736 | 49.79540 | 89 ft | 0 kts | 77° |
| 2026-04-21 20:10 | 26.46733 | 49.79524 | 90 ft | 3 kts | 73° |
| 2026-04-21 20:11 | 26.46726 | 49.79503 | 87 ft | 3 kts | 66° |
| 2026-04-21 20:11 | 26.46717 | 49.79483 | 87 ft | 3 kts | 50° |
| 2026-04-21 20:11 | 26.46704 | 49.79470 | 88 ft | 3 kts | 11° |
| 2026-04-21 20:11 | 26.46693 | 49.79469 | 86 ft | 0 kts | 342° |
| 2026-04-21 20:14 | 26.46739 | 49.79452 | 86 ft | 11 kts | 342° |
| 2026-04-21 20:14 | 26.46820 | 49.79426 | 88 ft | 13 kts | 343° |
| 2026-04-21 20:15 | 26.46913 | 49.79391 | 89 ft | 14 kts | 334° |
| 2026-04-21 20:15 | 26.46987 | 49.79350 | 86 ft | 11 kts | 333° |
| 2026-04-21 20:15 | 26.47024 | 49.79276 | 87 ft | 12 kts | 261° |
| 2026-04-21 20:15 | 26.47002 | 49.79194 | 86 ft | 10 kts | 253° |
| 2026-04-21 20:16 | 26.46981 | 49.79113 | 86 ft | 11 kts | 255° |
| 2026-04-21 20:16 | 26.47003 | 49.79038 | 87 ft | 14 kts | 327° |
| 2026-04-21 20:16 | 26.47110 | 49.79003 | 87 ft | 17 kts | 345° |
| 2026-04-21 20:16 | 26.47228 | 49.78967 | 86 ft | 19 kts | 345° |
| 2026-04-21 20:17 | 26.47368 | 49.78924 | 88 ft | 24 kts | 344° |
| 2026-04-21 20:17 | 26.47528 | 49.78875 | 85 ft | 24 kts | 344° |
| 2026-04-21 20:17 | 26.47686 | 49.78825 | 85 ft | 23 kts | 344° |
| 2026-04-21 20:17 | 26.47843 | 49.78775 | 87 ft | 24 kts | 345° |
| 2026-04-21 20:18 | 26.47954 | 49.78742 | 87 ft | 25 kts | 345° |
| 2026-04-21 20:18 | 26.48178 | 49.78674 | 87 ft | 26 kts | 344° |
| 2026-04-21 20:18 | 26.48349 | 49.78620 | 86 ft | 24 kts | 344° |
| 2026-04-21 20:18 | 26.48485 | 49.78577 | 88 ft | 21 kts | 345° |
| 2026-04-21 20:19 | 26.48629 | 49.78533 | 88 ft | 22 kts | 345° |
| 2026-04-21 20:19 | 26.48756 | 49.78494 | 86 ft | 17 kts | 345° |
| 2026-04-21 20:19 | 26.48863 | 49.78461 | 87 ft | 11 kts | 341° |
| 2026-04-21 20:19 | 26.48910 | 49.78413 | 88 ft | 8 kts | 288° |
| 2026-04-21 20:20 | 26.48905 | 49.78357 | 86 ft | 7 kts | 254° |
| 2026-04-21 20:20 | 26.48890 | 49.78305 | 87 ft | 0 kts | 253° |
| 2026-04-21 20:21 | 26.48885 | 49.78285 | 87 ft | 3 kts | 253° |
| 2026-04-21 20:21 | 26.48870 | 49.78241 | 90 ft | 12 kts | 242° |
| 2026-04-21 20:21 | 26.48807 | 49.78173 | 91 ft | 13 kts | 207° |
| 2026-04-21 20:21 | 26.48748 | 49.78171 | 91 ft | 0 kts | 166° |
| 2026-04-21 20:22 | 26.48642 | 49.78202 | 88 ft | 52 kts | 165° |
| 2026-04-21 20:22 | 26.47009 | 49.78711 | 115 ft | 176 kts | 166° |
| 2026-04-21 20:22 | 26.45783 | 49.78999 | 699 ft | 184 kts | 168° |
| 2026-04-21 20:23 | 26.44558 | 49.79341 | 1423 ft | 181 kts | 163° |
| 2026-04-21 20:23 | 26.43338 | 49.79737 | 2090 ft | 188 kts | 166° |
| 2026-04-21 20:23 | 26.42006 | 49.80171 | 2458 ft | 211 kts | 166° |
| 2026-04-21 20:23 | 26.40519 | 49.80651 | 2791 ft | 235 kts | 166° |
| 2026-04-21 20:24 | 26.38911 | 49.81346 | 3201 ft | 264 kts | 149° |
| 2026-04-21 20:24 | 26.37675 | 49.82923 | 3910 ft | 282 kts | 117° |
| 2026-04-21 20:24 | 26.37352 | 49.85105 | 4744 ft | 295 kts | 83° |
| 2026-04-21 20:24 | 26.38051 | 49.87276 | 5522 ft | 302 kts | 60° |
| 2026-04-21 20:25 | 26.39140 | 49.89291 | 6414 ft | 306 kts | 55° |
| 2026-04-21 20:25 | 26.40357 | 49.91267 | 7198 ft | 312 kts | 52° |
| 2026-04-21 20:25 | 26.41631 | 49.93256 | 8036 ft | 317 kts | 52° |
| 2026-04-21 20:25 | 26.42919 | 49.95283 | 8851 ft | 323 kts | 53° |
| 2026-04-21 20:26 | 26.44209 | 49.97366 | 9673 ft | 329 kts | 54° |
| 2026-04-21 20:26 | 26.45507 | 49.99513 | 10290 ft | 342 kts | 56° |
| 2026-04-21 20:26 | 26.46867 | 50.01801 | 10566 ft | 366 kts | 56° |
| 2026-04-21 20:26 | 26.48286 | 50.04214 | 10845 ft | 387 kts | 56° |
| 2026-04-21 20:27 | 26.49777 | 50.06763 | 11444 ft | 396 kts | 57° |
| 2026-04-21 20:27 | 26.51289 | 50.09355 | 12149 ft | 401 kts | 57° |
| 2026-04-21 20:27 | 26.52821 | 50.11979 | 12869 ft | 406 kts | 57° |
| 2026-04-21 20:27 | 26.54376 | 50.14636 | 13603 ft | 411 kts | 57° |
| 2026-04-21 20:28 | 26.55947 | 50.17319 | 14265 ft | 415 kts | 57° |
| 2026-04-21 20:28 | 26.57532 | 50.20026 | 14945 ft | 418 kts | 56° |
| 2026-04-21 20:28 | 26.59134 | 50.22759 | 15557 ft | 423 kts | 56° |
| 2026-04-21 20:28 | 26.60754 | 50.25522 | 16204 ft | 427 kts | 56° |
| 2026-04-21 20:29 | 26.62387 | 50.28309 | 16842 ft | 431 kts | 56° |
| 2026-04-21 20:29 | 26.64029 | 50.31120 | 17483 ft | 434 kts | 56° |
| 2026-04-21 20:29 | 26.65685 | 50.33962 | 18115 ft | 438 kts | 56° |
| 2026-04-21 20:29 | 26.67118 | 50.36986 | 18668 ft | 443 kts | 66° |
| 2026-04-21 20:30 | 26.68127 | 50.40259 | 19215 ft | 447 kts | 73° |
| 2026-04-21 20:30 | 26.69000 | 50.43606 | 19778 ft | 450 kts | 74° |
| 2026-04-21 20:30 | 26.69886 | 50.46982 | 20324 ft | 454 kts | 73° |
| 2026-04-21 20:30 | 26.70782 | 50.50383 | 20882 ft | 458 kts | 73° |
| 2026-04-21 20:31 | 26.71688 | 50.53809 | 21436 ft | 461 kts | 73° |
| 2026-04-21 20:31 | 26.72599 | 50.57256 | 21971 ft | 464 kts | 73° |
| 2026-04-21 20:31 | 26.73514 | 50.60728 | 22494 ft | 467 kts | 72° |
| 2026-04-21 20:31 | 26.74434 | 50.64229 | 23004 ft | 470 kts | 72° |
| 2026-04-21 20:32 | 26.75356 | 50.67753 | 23485 ft | 474 kts | 72° |
| 2026-04-21 20:32 | 26.76281 | 50.71303 | 23885 ft | 477 kts | 72° |
| 2026-04-21 20:32 | 26.77212 | 50.74874 | 24282 ft | 480 kts | 72° |
| 2026-04-21 20:32 | 26.78150 | 50.78469 | 24669 ft | 482 kts | 72° |
| 2026-04-21 20:33 | 26.79092 | 50.82081 | 25055 ft | 485 kts | 72° |
| 2026-04-21 20:33 | 26.80038 | 50.85715 | 25434 ft | 487 kts | 72° |
| 2026-04-21 20:33 | 26.80984 | 50.89368 | 25783 ft | 489 kts | 73° |
| 2026-04-21 20:33 | 26.81598 | 50.93112 | 25888 ft | 491 kts | 86° |
| 2026-04-21 20:34 | 26.81422 | 50.96930 | 25912 ft | 492 kts | 101° |
| 2026-04-21 20:34 | 26.80619 | 51.00638 | 25904 ft | 490 kts | 110° |
| 2026-04-21 20:34 | 26.79403 | 51.04192 | 25904 ft | 488 kts | 116° |
| 2026-04-21 20:34 | 26.78065 | 51.07688 | 25912 ft | 489 kts | 116° |
| 2026-04-21 20:35 | 26.76784 | 51.11213 | 25910 ft | 490 kts | 114° |
| 2026-04-21 20:35 | 26.75602 | 51.14788 | 25904 ft | 490 kts | 112° |
| 2026-04-21 20:35 | 26.74490 | 51.18392 | 25910 ft | 490 kts | 111° |
| 2026-04-21 20:35 | 26.73406 | 51.22010 | 25908 ft | 491 kts | 110° |
| 2026-04-21 20:36 | 26.72330 | 51.25583 | 25910 ft | 491 kts | 111° |
| 2026-04-21 20:36 | 26.71217 | 51.29194 | 25900 ft | 491 kts | 111° |
| 2026-04-21 20:36 | 26.70077 | 51.32795 | 25899 ft | 491 kts | 112° |
| 2026-04-21 20:36 | 26.68919 | 51.36380 | 25914 ft | 490 kts | 112° |
| 2026-04-21 20:37 | 26.67751 | 51.39961 | 25918 ft | 489 kts | 112° |
| 2026-04-21 20:37 | 26.66584 | 51.43527 | 25916 ft | 488 kts | 112° |
| 2026-04-21 20:37 | 26.65419 | 51.47090 | 25915 ft | 488 kts | 112° |
| 2026-04-21 20:37 | 26.64263 | 51.50649 | 25913 ft | 487 kts | 112° |
| 2026-04-21 20:38 | 26.63119 | 51.54208 | 25906 ft | 487 kts | 112° |
| 2026-04-21 20:38 | 26.61981 | 51.57771 | 25891 ft | 487 kts | 112° |
| 2026-04-21 20:38 | 26.60843 | 51.61331 | 25895 ft | 486 kts | 112° |
| 2026-04-21 20:38 | 26.59703 | 51.64883 | 25889 ft | 486 kts | 112° |
| 2026-04-21 20:39 | 26.58557 | 51.68439 | 25890 ft | 486 kts | 112° |
| 2026-04-21 20:39 | 26.57412 | 51.71988 | 25889 ft | 486 kts | 112° |
| 2026-04-21 20:39 | 26.56265 | 51.75537 | 25888 ft | 485 kts | 112° |
| 2026-04-21 20:39 | 26.55120 | 51.79081 | 25886 ft | 485 kts | 112° |
| 2026-04-21 20:40 | 26.54360 | 51.81428 | 25881 ft | 485 kts | 112° |
| 2026-04-21 20:40 | 26.53212 | 51.84966 | 25878 ft | 485 kts | 112° |
| 2026-04-21 20:40 | 26.52062 | 51.88506 | 25873 ft | 485 kts | 112° |
| 2026-04-21 20:40 | 26.50902 | 51.92040 | 25872 ft | 485 kts | 112° |
| 2026-04-21 20:41 | 26.49727 | 51.95569 | 25864 ft | 485 kts | 112° |
| 2026-04-21 20:41 | 26.48543 | 51.99094 | 25865 ft | 485 kts | 113° |
| 2026-04-21 20:41 | 26.47358 | 52.02621 | 25863 ft | 485 kts | 112° |
| 2026-04-21 20:41 | 26.46177 | 52.06149 | 25862 ft | 485 kts | 112° |
| 2026-04-21 20:42 | 26.45000 | 52.09677 | 25866 ft | 485 kts | 112° |
| 2026-04-21 20:42 | 26.43822 | 52.13206 | 25869 ft | 485 kts | 112° |
| 2026-04-21 20:42 | 26.42643 | 52.16734 | 25866 ft | 485 kts | 112° |
| 2026-04-21 20:42 | 26.41465 | 52.20259 | 25867 ft | 485 kts | 112° |
| 2026-04-21 20:43 | 26.40286 | 52.23780 | 25868 ft | 485 kts | 112° |
| 2026-04-21 20:43 | 26.39105 | 52.27304 | 25869 ft | 485 kts | 112° |
| 2026-04-21 20:43 | 26.37927 | 52.30822 | 25866 ft | 484 kts | 112° |
| 2026-04-21 20:43 | 26.36747 | 52.34336 | 25863 ft | 483 kts | 112° |
| 2026-04-21 20:44 | 26.35570 | 52.37841 | 25872 ft | 482 kts | 112° |
| 2026-04-21 20:44 | 26.34355 | 52.41322 | 25873 ft | 481 kts | 114° |
| 2026-04-21 20:44 | 26.33072 | 52.44763 | 25873 ft | 480 kts | 115° |
| 2026-04-21 20:44 | 26.31741 | 52.48177 | 25865 ft | 480 kts | 116° |
| 2026-04-21 20:45 | 26.30393 | 52.51574 | 25863 ft | 479 kts | 116° |
| 2026-04-21 20:45 | 26.29045 | 52.54971 | 25854 ft | 479 kts | 116° |
| 2026-04-21 20:45 | 26.27710 | 52.58372 | 25844 ft | 479 kts | 115° |
| 2026-04-21 20:45 | 26.26386 | 52.61780 | 25838 ft | 479 kts | 115° |
| 2026-04-21 20:46 | 26.25068 | 52.65192 | 25838 ft | 479 kts | 115° |
| 2026-04-21 20:46 | 26.23757 | 52.68608 | 25828 ft | 480 kts | 115° |
| 2026-04-21 20:46 | 26.22452 | 52.72026 | 25831 ft | 480 kts | 115° |
| 2026-04-21 20:46 | 26.21152 | 52.75446 | 25833 ft | 480 kts | 115° |
| 2026-04-21 20:47 | 26.19849 | 52.78867 | 25828 ft | 480 kts | 115° |
| 2026-04-21 20:47 | 26.18545 | 52.82285 | 25830 ft | 480 kts | 115° |
| 2026-04-21 20:47 | 26.17257 | 52.85657 | 25831 ft | 480 kts | 115° |
| 2026-04-21 20:47 | 26.15950 | 52.89074 | 25827 ft | 480 kts | 115° |
| 2026-04-21 20:48 | 26.14641 | 52.92486 | 25828 ft | 480 kts | 115° |
| 2026-04-21 20:48 | 26.13326 | 52.95899 | 25828 ft | 480 kts | 115° |
| 2026-04-21 20:48 | 26.12007 | 52.99309 | 25826 ft | 480 kts | 115° |
| 2026-04-21 20:48 | 26.10689 | 53.02716 | 25829 ft | 480 kts | 115° |
| 2026-04-21 20:49 | 26.09381 | 53.06128 | 25820 ft | 479 kts | 114° |
| 2026-04-21 20:49 | 26.08104 | 53.09553 | 25826 ft | 479 kts | 114° |
| 2026-04-21 20:49 | 26.06850 | 53.12984 | 25829 ft | 479 kts | 114° |
| 2026-04-21 20:49 | 26.05607 | 53.16417 | 25832 ft | 479 kts | 114° |
| 2026-04-21 20:50 | 26.04365 | 53.19852 | 25834 ft | 479 kts | 114° |
| 2026-04-21 20:50 | 26.03119 | 53.23282 | 25828 ft | 478 kts | 114° |
| 2026-04-21 20:50 | 26.01864 | 53.26706 | 25832 ft | 478 kts | 114° |
| 2026-04-21 20:50 | 26.00604 | 53.30125 | 25844 ft | 478 kts | 114° |
| 2026-04-21 20:51 | 25.99341 | 53.33537 | 25839 ft | 477 kts | 114° |
| 2026-04-21 20:51 | 25.98074 | 53.36944 | 25837 ft | 477 kts | 114° |
| 2026-04-21 20:51 | 25.96809 | 53.40347 | 25830 ft | 476 kts | 114° |
| 2026-04-21 20:51 | 25.95548 | 53.43746 | 25834 ft | 476 kts | 114° |
| 2026-04-21 20:52 | 25.94285 | 53.47152 | 25823 ft | 476 kts | 114° |
| 2026-04-21 20:52 | 25.93027 | 53.50551 | 25822 ft | 476 kts | 114° |
| 2026-04-21 20:52 | 25.91802 | 53.53967 | 25821 ft | 476 kts | 113° |
| 2026-04-21 20:52 | 25.90617 | 53.57398 | 25820 ft | 476 kts | 112° |
| 2026-04-21 20:53 | 25.89469 | 53.60795 | 25818 ft | 476 kts | 112° |
| 2026-04-21 20:53 | 25.88314 | 53.64241 | 25818 ft | 476 kts | 112° |
| 2026-04-21 20:53 | 25.87152 | 53.67682 | 25817 ft | 476 kts | 112° |
| 2026-04-21 20:53 | 25.85977 | 53.71121 | 25818 ft | 476 kts | 112° |
| 2026-04-21 20:54 | 25.84791 | 53.74556 | 25816 ft | 476 kts | 113° |
| 2026-04-21 20:54 | 25.83599 | 53.77983 | 25816 ft | 476 kts | 113° |
| 2026-04-21 20:54 | 25.82402 | 53.81410 | 25814 ft | 476 kts | 113° |
| 2026-04-21 20:54 | 25.81205 | 53.84834 | 25817 ft | 476 kts | 113° |
| 2026-04-21 20:55 | 25.80008 | 53.88261 | 25644 ft | 476 kts | 112° |
| 2026-04-21 20:55 | 25.78814 | 53.91689 | 25406 ft | 476 kts | 112° |
| 2026-04-21 20:55 | 25.77623 | 53.95106 | 25175 ft | 474 kts | 113° |
| 2026-04-21 20:55 | 25.76435 | 53.98512 | 24938 ft | 473 kts | 113° |
| 2026-04-21 20:56 | 25.75261 | 54.01909 | 24698 ft | 472 kts | 112° |
| 2026-04-21 20:56 | 25.74143 | 54.05320 | 24061 ft | 469 kts | 111° |
| 2026-04-21 20:56 | 25.73090 | 54.08739 | 23359 ft | 467 kts | 110° |
| 2026-04-21 20:56 | 25.72075 | 54.12154 | 22615 ft | 464 kts | 110° |
| 2026-04-21 20:57 | 25.71080 | 54.15536 | 21980 ft | 459 kts | 110° |
| 2026-04-21 20:57 | 25.70087 | 54.18882 | 21377 ft | 454 kts | 110° |
| 2026-04-21 20:57 | 25.69090 | 54.22185 | 20780 ft | 449 kts | 110° |
| 2026-04-21 20:57 | 25.68090 | 54.25448 | 20228 ft | 445 kts | 110° |
| 2026-04-21 20:58 | 25.67090 | 54.28673 | 19674 ft | 441 kts | 110° |
| 2026-04-21 20:58 | 25.66092 | 54.31869 | 19146 ft | 437 kts | 110° |
| 2026-04-21 20:58 | 25.65103 | 54.35034 | 18611 ft | 433 kts | 110° |
| 2026-04-21 20:58 | 25.64119 | 54.38181 | 18078 ft | 431 kts | 110° |
| 2026-04-21 20:59 | 25.63156 | 54.41269 | 17497 ft | 428 kts | 110° |
| 2026-04-21 20:59 | 25.62193 | 54.44369 | 16952 ft | 423 kts | 110° |
| 2026-04-21 20:59 | 25.61240 | 54.47439 | 16384 ft | 420 kts | 110° |
| 2026-04-21 20:59 | 25.60295 | 54.50484 | 15829 ft | 416 kts | 111° |
| 2026-04-21 21:00 | 25.59371 | 54.53516 | 15255 ft | 414 kts | 108° |
| 2026-04-21 21:00 | 25.58948 | 54.56665 | 14657 ft | 416 kts | 91° |
| 2026-04-21 21:00 | 25.59151 | 54.59849 | 14191 ft | 411 kts | 86° |
| 2026-04-21 21:00 | 25.59400 | 54.62943 | 13621 ft | 409 kts | 86° |
| 2026-04-21 21:01 | 25.59653 | 54.66076 | 13016 ft | 406 kts | 86° |
| 2026-04-21 21:01 | 25.59900 | 54.69131 | 12870 ft | 390 kts | 86° |
| 2026-04-21 21:01 | 25.60137 | 54.72069 | 12742 ft | 375 kts | 86° |
| 2026-04-21 21:01 | 25.60366 | 54.74932 | 12613 ft | 362 kts | 86° |
| 2026-04-21 21:02 | 25.60579 | 54.77624 | 12484 ft | 350 kts | 86° |
| 2026-04-21 21:02 | 25.60783 | 54.80242 | 12354 ft | 330 kts | 86° |
| 2026-04-21 21:02 | 25.60974 | 54.82696 | 12156 ft | 311 kts | 86° |
| 2026-04-21 21:02 | 25.61106 | 54.85060 | 11834 ft | 305 kts | 94° |
| 2026-04-21 21:03 | 25.60796 | 54.87347 | 11569 ft | 297 kts | 110° |
| 2026-04-21 21:03 | 25.60050 | 54.89460 | 11269 ft | 293 kts | 117° |
| 2026-04-21 21:03 | 25.59239 | 54.91526 | 10959 ft | 292 kts | 117° |
| 2026-04-21 21:03 | 25.58434 | 54.93583 | 10653 ft | 290 kts | 117° |
| 2026-04-21 21:04 | 25.57635 | 54.95630 | 10353 ft | 289 kts | 117° |
| 2026-04-21 21:04 | 25.56843 | 54.97665 | 10088 ft | 286 kts | 117° |
| 2026-04-21 21:04 | 25.56056 | 54.99689 | 10015 ft | 286 kts | 117° |
| 2026-04-21 21:04 | 25.55266 | 55.01717 | 10024 ft | 288 kts | 117° |
| 2026-04-21 21:05 | 25.54439 | 55.03733 | 10022 ft | 287 kts | 123° |
| 2026-04-21 21:05 | 25.53446 | 55.05645 | 10022 ft | 286 kts | 124° |
| 2026-04-21 21:05 | 25.52454 | 55.07551 | 9894 ft | 285 kts | 124° |
| 2026-04-21 21:05 | 25.51471 | 55.09446 | 9571 ft | 283 kts | 123° |
| 2026-04-21 21:06 | 25.50493 | 55.11332 | 9226 ft | 281 kts | 123° |
| 2026-04-21 21:06 | 25.49524 | 55.13205 | 8890 ft | 279 kts | 123° |
| 2026-04-21 21:06 | 25.48561 | 55.15064 | 8555 ft | 277 kts | 123° |
| 2026-04-21 21:06 | 25.47606 | 55.16907 | 8215 ft | 275 kts | 123° |
| 2026-04-21 21:07 | 25.46656 | 55.18732 | 8015 ft | 273 kts | 123° |
| 2026-04-21 21:07 | 25.45590 | 55.20453 | 8016 ft | 271 kts | 134° |
| 2026-04-21 21:07 | 25.44344 | 55.21978 | 8021 ft | 271 kts | 135° |
| 2026-04-21 21:07 | 25.43081 | 55.23523 | 8018 ft | 271 kts | 135° |
| 2026-04-21 21:08 | 25.41821 | 55.25069 | 8020 ft | 271 kts | 135° |
| 2026-04-21 21:08 | 25.40562 | 55.26617 | 8020 ft | 271 kts | 135° |
| 2026-04-21 21:08 | 25.39302 | 55.28167 | 8021 ft | 271 kts | 135° |
| 2026-04-21 21:08 | 25.38041 | 55.29718 | 8017 ft | 270 kts | 135° |
| 2026-04-21 21:09 | 25.36822 | 55.31222 | 8010 ft | 254 kts | 135° |
| 2026-04-21 21:09 | 25.35621 | 55.32569 | 7931 ft | 239 kts | 146° |
| 2026-04-21 21:09 | 25.34226 | 55.33504 | 7666 ft | 233 kts | 155° |
| 2026-04-21 21:09 | 25.32805 | 55.34328 | 7475 ft | 229 kts | 155° |
| 2026-04-21 21:10 | 25.31386 | 55.35155 | 7353 ft | 231 kts | 155° |
| 2026-04-21 21:10 | 25.29963 | 55.35986 | 7242 ft | 232 kts | 155° |
| 2026-04-21 21:10 | 25.28539 | 55.36819 | 7114 ft | 231 kts | 155° |
| 2026-04-21 21:10 | 25.27123 | 55.37649 | 6922 ft | 229 kts | 154° |
| 2026-04-21 21:11 | 25.25715 | 55.38475 | 6614 ft | 228 kts | 154° |
| 2026-04-21 21:11 | 25.24314 | 55.39295 | 6317 ft | 227 kts | 154° |
| 2026-04-21 21:11 | 25.22920 | 55.40112 | 6017 ft | 226 kts | 154° |
| 2026-04-21 21:11 | 25.21533 | 55.40923 | 5707 ft | 225 kts | 153° |
| 2026-04-21 21:12 | 25.20150 | 55.41730 | 5350 ft | 227 kts | 153° |
| 2026-04-21 21:12 | 25.18745 | 55.42551 | 4966 ft | 229 kts | 152° |
| 2026-04-21 21:12 | 25.17337 | 55.43374 | 4646 ft | 229 kts | 152° |
| 2026-04-21 21:12 | 25.15936 | 55.44196 | 4330 ft | 227 kts | 151° |
| 2026-04-21 21:13 | 25.14544 | 55.45013 | 4001 ft | 226 kts | 151° |
| 2026-04-21 21:13 | 25.13157 | 55.45823 | 3686 ft | 225 kts | 150° |
| 2026-04-21 21:13 | 25.11807 | 55.46666 | 3484 ft | 218 kts | 142° |
| 2026-04-21 21:13 | 25.10757 | 55.47792 | 3361 ft | 205 kts | 125° |
| 2026-04-21 21:14 | 25.10018 | 55.49081 | 3187 ft | 199 kts | 120° |
| 2026-04-21 21:14 | 25.09300 | 55.50380 | 2946 ft | 198 kts | 120° |
| 2026-04-21 21:14 | 25.08581 | 55.51670 | 2712 ft | 196 kts | 120° |
| 2026-04-21 21:14 | 25.07878 | 55.52952 | 2484 ft | 194 kts | 115° |
| 2026-04-21 21:15 | 25.07657 | 55.54376 | 2242 ft | 191 kts | 79° |
| 2026-04-21 21:15 | 25.08316 | 55.55619 | 2056 ft | 194 kts | 43° |
| 2026-04-21 21:15 | 25.09448 | 55.56462 | 2009 ft | 199 kts | 29° |
| 2026-04-21 21:15 | 25.10816 | 55.56699 | 2014 ft | 207 kts | 352° |
| 2026-04-21 21:16 | 25.12169 | 55.56118 | 2022 ft | 211 kts | 335° |
| 2026-04-21 21:16 | 25.13456 | 55.55330 | 2020 ft | 212 kts | 333° |
| 2026-04-21 21:16 | 25.14731 | 55.54513 | 2019 ft | 212 kts | 332° |
| 2026-04-21 21:16 | 25.15837 | 55.53439 | 2018 ft | 215 kts | 305° |
| 2026-04-21 21:17 | 25.16631 | 55.52034 | 2017 ft | 216 kts | 302° |
| 2026-04-21 21:17 | 25.17406 | 55.50624 | 2013 ft | 212 kts | 302° |
| 2026-04-21 21:17 | 25.18170 | 55.49247 | 1943 ft | 209 kts | 302° |
| 2026-04-21 21:17 | 25.18914 | 55.47908 | 1752 ft | 200 kts | 303° |
| 2026-04-21 21:18 | 25.19619 | 55.46638 | 1498 ft | 189 kts | 303° |
| 2026-04-21 21:18 | 25.20284 | 55.45443 | 1268 ft | 175 kts | 303° |
| 2026-04-21 21:18 | 25.20890 | 55.44352 | 1060 ft | 160 kts | 303° |
| 2026-04-21 21:18 | 25.21455 | 55.43335 | 872 ft | 151 kts | 302° |
| 2026-04-21 21:19 | 25.21994 | 55.42366 | 684 ft | 145 kts | 302° |
| 2026-04-21 21:19 | 25.22514 | 55.41430 | 508 ft | 141 kts | 302° |
| 2026-04-21 21:19 | 25.23024 | 55.40512 | 324 ft | 140 kts | 302° |
| 2026-04-21 21:19 | 25.23528 | 55.39601 | 132 ft | 139 kts | 301° |
| 2026-04-21 21:20 | 25.24014 | 55.38742 | 24 ft | 114 kts | 302° |
| 2026-04-21 21:20 | 25.24332 | 55.38149 | 27 ft | 67 kts | 302° |
| 2026-04-21 21:20 | 25.24502 | 55.37843 | 23 ft | 41 kts | 301° |
| 2026-04-21 21:20 | 25.24596 | 55.37628 | 22 ft | 27 kts | 283° |
| 2026-04-21 21:21 | 25.24614 | 55.37431 | 22 ft | 17 kts | 270° |
| 2026-04-21 21:21 | 25.24617 | 55.37309 | 21 ft | 16 kts | 278° |
| 2026-04-21 21:21 | 25.24658 | 55.37199 | 23 ft | 14 kts | 300° |
| 2026-04-21 21:21 | 25.24720 | 55.37091 | 22 ft | 25 kts | 302° |
| 2026-04-21 21:22 | 25.24810 | 55.36934 | 22 ft | 24 kts | 302° |
| 2026-04-21 21:22 | 25.24866 | 55.36766 | 23 ft | 20 kts | 281° |
| 2026-04-21 21:22 | 25.24921 | 55.36615 | 21 ft | 23 kts | 302° |
| 2026-04-21 21:22 | 25.25001 | 55.36470 | 21 ft | 23 kts | 301° |
| 2026-04-21 21:23 | 25.25091 | 55.36313 | 22 ft | 25 kts | 301° |
| 2026-04-21 21:23 | 25.25185 | 55.36144 | 21 ft | 21 kts | 303° |
| 2026-04-21 21:23 | 25.25269 | 55.35997 | 21 ft | 24 kts | 301° |
| 2026-04-21 21:23 | 25.25360 | 55.35835 | 23 ft | 26 kts | 302° |
| 2026-04-21 21:24 | 25.25459 | 55.35658 | 23 ft | 28 kts | 302° |
| 2026-04-21 21:24 | 25.25553 | 55.35493 | 21 ft | 21 kts | 302° |
| 2026-04-21 21:24 | 25.25631 | 55.35353 | 21 ft | 18 kts | 302° |
| 2026-04-21 21:24 | 25.25695 | 55.35240 | 22 ft | 14 kts | 302° |
| 2026-04-21 21:25 | 25.25743 | 55.35153 | 21 ft | 12 kts | 301° |
| 2026-04-21 21:25 | 25.25779 | 55.35084 | 22 ft | 9 kts | 300° |
| 2026-04-21 21:25 | 25.25781 | 55.35020 | 22 ft | 8 kts | 240° |
| 2026-04-21 21:25 | 25.25738 | 55.34984 | 21 ft | 7 kts | 209° |
| 2026-04-21 21:26 | 25.25693 | 55.34956 | 21 ft | 7 kts | 211° |
| 2026-04-21 21:26 | 25.25650 | 55.34927 | 21 ft | 7 kts | 211° |
| 2026-04-21 21:26 | 25.25610 | 55.34901 | 21 ft | 6 kts | 211° |
| 2026-04-21 21:26 | 25.25574 | 55.34876 | 21 ft | 6 kts | 211° |
| 2026-04-21 21:27 | 25.25530 | 55.34847 | 20 ft | 6 kts | 211° |
| 2026-04-21 21:27 | 25.25518 | 55.34839 | 21 ft | 0 kts | 210° |
| 2026-04-21 21:27 | 25.25505 | 55.34815 | 22 ft | 5 kts | 281° |
| 2026-04-21 21:27 | 25.25519 | 55.34791 | 22 ft | 2 kts | 304° |
| 2026-04-21 21:28 | 25.25526 | 55.34779 | 21 ft | 2 kts | 302° |
| 2026-04-21 21:28 | 25.25532 | 55.34770 | 23 ft | 1 kts | 301° |
| 2026-04-21 21:28 | 25.25544 | 55.34745 | 23 ft | 2 kts | 300° |
| 2026-04-21 21:29 | 25.25549 | 55.34736 | 22 ft | 0 kts | 302° |